createdAt,value
2023-03-29T00:01:11.813Z,19.50
2023-03-29T00:04:02.667Z,19.60
2023-03-29T00:06:32.844Z,19.50
2023-03-29T00:09:01.588Z,19.50
2023-03-29T00:11:29.296Z,19.50
2023-03-29T00:13:56.987Z,19.50
2023-03-29T00:16:24.684Z,19.50
2023-03-29T00:18:52.368Z,19.50
2023-03-29T00:21:21.338Z,19.50
2023-03-29T00:23:49.002Z,19.50
2023-03-29T00:26:16.673Z,19.50
2023-03-29T00:28:44.345Z,19.50
2023-03-29T00:31:13.031Z,19.50
2023-03-29T00:33:41.277Z,19.50
2023-03-29T00:36:10.230Z,19.50
2023-03-29T00:38:39.716Z,19.50
2023-03-29T00:41:07.870Z,19.50
2023-03-29T00:43:54.276Z,19.40
2023-03-29T00:46:22.071Z,19.50
2023-03-29T00:48:50.442Z,19.40
2023-03-29T00:51:18.843Z,19.40
2023-03-29T00:53:49.635Z,19.40
2023-03-29T00:56:19.434Z,19.40
2023-03-29T00:58:48.940Z,19.40
2023-03-29T01:01:19.316Z,19.40
2023-03-29T01:03:50.442Z,19.40
2023-03-29T01:06:18.788Z,19.40
2023-03-29T01:08:49.584Z,19.40
2023-03-29T01:11:18.881Z,19.40
2023-03-29T01:13:47.847Z,19.40
2023-03-29T01:16:15.611Z,19.40
2023-03-29T01:18:43.693Z,19.40
2023-03-29T01:21:17.249Z,19.40
2023-03-29T01:24:37.869Z,19.30
2023-03-29T01:27:11.265Z,19.30
2023-03-29T01:29:41.078Z,19.30
2023-03-29T01:32:09.828Z,19.30
2023-03-29T01:34:39.784Z,19.30
2023-03-29T01:37:10.049Z,19.30
2023-03-29T01:39:37.760Z,19.30
2023-03-29T01:42:21.977Z,19.30
2023-03-29T01:44:53.927Z,19.30
2023-03-29T01:47:26.151Z,19.30
2023-03-29T01:49:57.948Z,19.30
2023-03-29T01:52:26.498Z,19.30
2023-03-29T01:54:55.798Z,19.30
2023-03-29T01:57:24.970Z,19.30
2023-03-29T01:59:54.211Z,19.30
2023-03-29T02:02:21.973Z,19.30
2023-03-29T02:04:51.695Z,19.30
2023-03-29T02:07:21.371Z,19.30
2023-03-29T02:09:49.387Z,19.30
2023-03-29T02:12:17.068Z,19.30
2023-03-29T02:14:45.252Z,19.30
2023-03-29T02:17:22.088Z,19.30
2023-03-29T02:19:51.015Z,19.30
2023-03-29T02:22:22.020Z,19.30
2023-03-29T02:24:50.027Z,19.30
2023-03-29T02:27:17.848Z,19.30
2023-03-29T02:29:46.823Z,19.30
2023-03-29T02:32:17.509Z,19.30
2023-03-29T02:34:47.658Z,19.30
2023-03-29T02:37:17.855Z,19.30
2023-03-29T02:39:47.594Z,19.30
2023-03-29T02:42:16.955Z,19.30
2023-03-29T02:44:46.193Z,19.30
2023-03-29T02:47:16.150Z,19.30
2023-03-29T02:49:43.927Z,19.30
2023-03-29T02:52:14.743Z,19.20
2023-03-29T02:54:43.336Z,19.20
2023-03-29T02:57:11.205Z,19.20
2023-03-29T02:59:40.761Z,19.20
2023-03-29T03:02:08.530Z,19.20
2023-03-29T03:04:36.470Z,19.20
2023-03-29T03:07:05.607Z,19.20
2023-03-29T03:09:35.426Z,19.20
2023-03-29T03:12:03.136Z,19.20
2023-03-29T03:14:31.104Z,19.20
2023-03-29T03:17:03.124Z,19.20
2023-03-29T03:19:32.284Z,19.20
2023-03-29T03:22:00.033Z,19.20
2023-03-29T03:24:28.612Z,19.20
2023-03-29T03:26:58.456Z,19.20
2023-03-29T03:29:26.142Z,19.20
2023-03-29T03:32:13.417Z,19.20
2023-03-29T03:34:59.808Z,19.20
2023-03-29T03:37:28.461Z,19.20
2023-03-29T03:39:56.601Z,19.20
2023-03-29T03:42:28.070Z,19.20
2023-03-29T03:44:55.812Z,19.20
2023-03-29T03:47:42.306Z,19.10
2023-03-29T03:50:21.255Z,19.10
2023-03-29T03:52:49.258Z,19.10
2023-03-29T03:55:17.031Z,19.10
2023-03-29T03:57:53.519Z,19.10
2023-03-29T04:00:23.194Z,19.10
2023-03-29T04:03:09.226Z,19.10
2023-03-29T04:05:40.073Z,19.10
2023-03-29T04:08:08.056Z,19.10
2023-03-29T04:10:56.736Z,19.10
2023-03-29T04:13:30.828Z,19.10
2023-03-29T04:16:18.062Z,19.10
2023-03-29T04:18:46.083Z,19.10
2023-03-29T04:21:13.806Z,19.10
2023-03-29T04:23:42.890Z,19.10
2023-03-29T04:26:12.007Z,19.10
2023-03-29T04:28:49.993Z,19.10
2023-03-29T04:31:22.723Z,19.10
2023-03-29T04:34:13.660Z,19.10
2023-03-29T04:36:41.431Z,19.10
2023-03-29T04:39:17.889Z,19.10
2023-03-29T04:41:48.410Z,19.10
2023-03-29T04:44:22.663Z,19.10
2023-03-29T04:46:50.790Z,19.10
2023-03-29T04:49:46.887Z,19.10
2023-03-29T04:52:24.389Z,19.10
2023-03-29T04:54:53.281Z,19.10
2023-03-29T04:57:39.620Z,19.00
2023-03-29T05:00:16.863Z,19.00
2023-03-29T05:03:05.905Z,19.00
2023-03-29T05:05:37.379Z,19.00
2023-03-29T05:08:05.418Z,19.00
2023-03-29T05:10:59.204Z,19.00
2023-03-29T05:13:28.743Z,19.00
2023-03-29T05:15:58.106Z,19.00
2023-03-29T05:18:26.154Z,19.00
2023-03-29T05:20:54.038Z,19.00
2023-03-29T05:23:22.554Z,19.00
2023-03-29T05:26:22.473Z,19.00
2023-03-29T05:28:53.451Z,19.00
2023-03-29T05:31:22.813Z,19.00
2023-03-29T05:33:54.597Z,19.00
2023-03-29T05:36:23.363Z,19.00
2023-03-29T05:38:51.696Z,19.00
2023-03-29T05:41:22.680Z,19.00
2023-03-29T05:44:22.788Z,19.00
2023-03-29T05:46:57.167Z,18.90
2023-03-29T05:49:25.434Z,19.00
2023-03-29T05:52:07.524Z,18.90
2023-03-29T05:54:36.690Z,18.90
2023-03-29T05:57:06.329Z,18.90
2023-03-29T05:59:34.616Z,18.90
2023-03-29T06:02:04.903Z,18.90
2023-03-29T06:04:35.795Z,19.00
2023-03-29T06:07:24.298Z,18.90
2023-03-29T06:10:15.620Z,19.00
2023-03-29T06:12:49.346Z,18.90
2023-03-29T06:15:18.652Z,18.90
2023-03-29T06:17:52.963Z,18.90
2023-03-29T06:20:21.454Z,18.90
2023-03-29T06:22:54.001Z,19.00
2023-03-29T06:25:24.882Z,18.90
2023-03-29T06:27:52.930Z,18.90
2023-03-29T06:30:21.840Z,19.00
2023-03-29T06:32:55.491Z,19.00
2023-03-29T06:35:48.383Z,19.00
2023-03-29T06:38:20.727Z,18.90
2023-03-29T06:41:11.047Z,18.90
2023-03-29T06:44:10.944Z,18.90
2023-03-29T06:46:51.250Z,18.90
2023-03-29T06:49:20.662Z,18.90
2023-03-29T06:52:14.490Z,18.90
2023-03-29T06:54:43.333Z,18.90
2023-03-29T06:57:13.272Z,18.90
2023-03-29T06:59:41.209Z,18.90
2023-03-29T07:02:22.634Z,18.90
2023-03-29T07:04:58.064Z,18.90
2023-03-29T07:07:53.601Z,18.90
2023-03-29T07:10:42.256Z,18.90
2023-03-29T07:13:22.340Z,18.90
2023-03-29T07:15:51.408Z,18.90
2023-03-29T07:18:34.473Z,18.90
2023-03-29T07:21:04.767Z,18.90
2023-03-29T07:23:32.713Z,18.90
2023-03-29T07:26:01.238Z,18.90
2023-03-29T07:28:29.220Z,18.90
2023-03-29T07:31:03.273Z,18.90
2023-03-29T07:33:31.992Z,18.90
2023-03-29T07:36:04.897Z,18.90
2023-03-29T07:38:32.934Z,18.90
2023-03-29T07:41:08.991Z,18.90
2023-03-29T07:43:48.199Z,18.90
2023-03-29T07:46:21.781Z,19.00
2023-03-29T07:48:50.623Z,18.90
2023-03-29T07:51:19.692Z,19.00
2023-03-29T07:53:54.032Z,19.00
2023-03-29T07:56:49.453Z,19.00
2023-03-29T07:59:32.714Z,18.90
2023-03-29T08:02:13.874Z,19.00
2023-03-29T08:04:48.037Z,19.00
2023-03-29T08:07:20.956Z,19.00
2023-03-29T08:10:22.296Z,19.00
2023-03-29T08:13:05.940Z,19.00
2023-03-29T08:15:46.223Z,19.00
2023-03-29T08:18:23.957Z,19.00
2023-03-29T08:20:52.588Z,19.00
2023-03-29T08:23:21.683Z,19.00
2023-03-29T08:26:08.613Z,19.00
2023-03-29T08:28:36.564Z,19.00
2023-03-29T08:31:04.579Z,19.00
2023-03-29T08:33:32.773Z,19.00
2023-03-29T08:36:26.598Z,19.00
2023-03-29T08:38:58.313Z,19.00
2023-03-29T08:41:34.087Z,19.00
2023-03-29T08:44:10.766Z,19.00
2023-03-29T08:46:59.757Z,19.00
2023-03-29T08:49:36.506Z,19.00
2023-03-29T08:52:06.410Z,19.00
2023-03-29T08:54:42.113Z,19.00
2023-03-29T08:57:13.249Z,19.00
2023-03-29T08:59:52.315Z,19.00
2023-03-29T09:02:23.265Z,19.00
2023-03-29T09:04:59.937Z,19.00
2023-03-29T09:07:48.029Z,19.00
2023-03-29T09:10:18.931Z,19.00
2023-03-29T09:12:55.470Z,19.00
2023-03-29T09:15:24.866Z,19.00
2023-03-29T09:18:25.918Z,19.00
2023-03-29T09:20:56.959Z,19.00
2023-03-29T09:23:52.736Z,19.00
2023-03-29T09:26:38.702Z,19.00
2023-03-29T09:29:32.167Z,19.00
2023-03-29T09:32:00.061Z,19.00
2023-03-29T09:34:30.744Z,19.00
2023-03-29T09:37:03.894Z,19.00
2023-03-29T09:39:31.965Z,19.00
2023-03-29T09:42:11.907Z,19.00
2023-03-29T09:44:43.676Z,19.00
2023-03-29T09:47:19.498Z,19.00
2023-03-29T09:49:50.139Z,19.10
2023-03-29T09:52:18.153Z,19.10
2023-03-29T09:54:54.382Z,19.10
2023-03-29T09:57:41.346Z,19.10
2023-03-29T10:00:10.597Z,19.10
2023-03-29T10:02:52.552Z,19.10
2023-03-29T10:05:25.532Z,19.10
2023-03-29T10:07:54.703Z,19.10
2023-03-29T10:10:23.854Z,19.20
2023-03-29T10:12:53.841Z,19.20
2023-03-29T10:17:57.769Z,19.10
2023-03-29T10:20:25.642Z,19.10
2023-03-29T10:22:56.584Z,19.10
2023-03-29T10:25:27.096Z,19.10
2023-03-29T10:27:57.422Z,19.10
2023-03-29T10:30:25.948Z,19.00
2023-03-29T10:32:57.829Z,19.00
2023-03-29T10:35:28.615Z,19.10
2023-03-29T10:37:57.498Z,19.00
2023-03-29T10:40:27.861Z,19.00
2023-03-29T10:42:59.165Z,19.00
2023-03-29T10:45:28.141Z,19.00
2023-03-29T10:47:56.838Z,19.00
2023-03-29T10:50:26.566Z,19.10
2023-03-29T10:52:54.294Z,19.10
2023-03-29T10:55:22.073Z,19.10
2023-03-29T10:57:56.900Z,19.10
2023-03-29T11:00:28.260Z,19.10
2023-03-29T11:03:15.630Z,19.10
2023-03-29T11:05:46.459Z,19.10
2023-03-29T11:08:22.523Z,19.20
2023-03-29T11:10:54.756Z,19.20
2023-03-29T11:13:24.496Z,19.20
2023-03-29T11:16:00.490Z,19.20
2023-03-29T11:18:51.545Z,19.20
2023-03-29T11:21:24.739Z,19.30
2023-03-29T11:23:57.988Z,19.30
2023-03-29T11:26:27.062Z,19.30
2023-03-29T11:28:57.599Z,19.30
2023-03-29T11:31:31.813Z,19.40
2023-03-29T11:34:06.660Z,19.50
2023-03-29T11:36:38.818Z,19.50
2023-03-29T11:39:11.323Z,19.50
2023-03-29T11:41:39.735Z,19.60
2023-03-29T11:44:10.268Z,19.60
2023-03-29T11:46:40.634Z,19.70
2023-03-29T11:49:12.240Z,19.70
2023-03-29T11:51:42.440Z,19.80
2023-03-29T11:54:14.912Z,19.80
2023-03-29T11:56:45.110Z,19.80
2023-03-29T11:59:14.761Z,19.60
2023-03-29T12:01:46.295Z,19.50
2023-03-29T12:04:17.587Z,19.50
2023-03-29T12:06:47.746Z,19.50
2023-03-29T12:09:23.760Z,19.50
2023-03-29T12:11:53.779Z,19.50
2023-03-29T12:14:22.921Z,19.60
2023-03-29T12:16:53.743Z,19.70
2023-03-29T12:19:23.757Z,19.70
2023-03-29T12:21:51.559Z,19.80
2023-03-29T12:24:20.724Z,19.90
2023-03-29T12:27:11.656Z,19.90
2023-03-29T12:29:46.563Z,20.00
2023-03-29T12:32:28.412Z,20.00
2023-03-29T12:35:15.184Z,20.10
2023-03-29T12:38:08.198Z,20.10
2023-03-29T12:40:55.753Z,20.10
2023-03-29T12:44:03.458Z,20.20
2023-03-29T12:46:54.330Z,20.20
2023-03-29T12:49:27.914Z,20.20
2023-03-29T12:51:56.125Z,20.20
2023-03-29T12:54:27.509Z,20.10
2023-03-29T12:56:58.049Z,20.10
2023-03-29T12:59:27.378Z,20.00
2023-03-29T13:01:59.607Z,20.00
2023-03-29T13:04:38.627Z,20.10
2023-03-29T13:07:06.987Z,20.10
2023-03-29T13:09:36.716Z,20.20
2023-03-29T13:12:09.333Z,20.20
2023-03-29T13:14:37.687Z,20.30
2023-03-29T13:17:17.677Z,20.30
2023-03-29T13:19:49.768Z,20.40
2023-03-29T13:22:23.516Z,20.10
2023-03-29T13:25:01.148Z,20.20
2023-03-29T13:27:34.136Z,20.30
2023-03-29T13:30:09.165Z,20.30
2023-03-29T13:32:47.047Z,20.30
2023-03-29T13:35:22.437Z,20.40
2023-03-29T13:37:56.971Z,20.30
2023-03-29T13:40:28.495Z,20.40
2023-03-29T13:42:59.272Z,20.40
2023-03-29T13:45:28.050Z,20.40
2023-03-29T13:48:05.412Z,20.10
2023-03-29T13:50:39.460Z,20.30
2023-03-29T13:53:11.570Z,20.30
2023-03-29T13:55:43.985Z,20.40
2023-03-29T13:58:13.305Z,20.20
2023-03-29T14:00:42.770Z,20.20
2023-03-29T14:03:12.827Z,20.30
2023-03-29T14:05:43.287Z,20.40
2023-03-29T14:08:15.678Z,20.50
2023-03-29T14:10:44.526Z,20.50
2023-03-29T14:13:13.587Z,20.60
2023-03-29T14:15:44.711Z,20.60
2023-03-29T14:18:12.914Z,20.60
2023-03-29T14:20:44.030Z,20.60
2023-03-29T14:23:14.340Z,20.70
2023-03-29T14:25:43.475Z,20.70
2023-03-29T14:28:20.931Z,20.70
2023-03-29T14:30:49.769Z,20.80
2023-03-29T14:33:25.851Z,20.80
2023-03-29T14:35:55.015Z,20.80
2023-03-29T14:38:23.498Z,20.80
2023-03-29T14:40:51.321Z,20.80
2023-03-29T14:43:21.996Z,20.80
2023-03-29T14:45:49.930Z,20.80
2023-03-29T14:48:17.787Z,20.90
2023-03-29T14:50:45.582Z,20.80
2023-03-29T14:53:18.338Z,20.80
2023-03-29T14:55:46.720Z,20.90
2023-03-29T14:58:17.799Z,20.90
2023-03-29T15:00:45.548Z,20.90
2023-03-29T15:03:14.174Z,20.90
2023-03-29T15:05:42.449Z,21.00
2023-03-29T15:08:14.872Z,21.00
2023-03-29T15:10:45.028Z,20.90
2023-03-29T15:13:16.360Z,21.00
2023-03-29T15:15:44.065Z,20.90
2023-03-29T15:18:12.983Z,21.00
2023-03-29T15:20:41.166Z,21.00
2023-03-29T15:23:22.105Z,21.00
2023-03-29T15:25:53.963Z,21.10
2023-03-29T15:28:28.232Z,21.20
2023-03-29T15:31:07.289Z,21.20
2023-03-29T15:33:36.809Z,21.30
2023-03-29T15:36:05.383Z,21.30
2023-03-29T15:38:43.023Z,21.40
2023-03-29T15:41:14.339Z,21.40
2023-03-29T15:43:42.644Z,21.40
2023-03-29T15:46:12.072Z,21.30
2023-03-29T15:48:39.757Z,21.40
2023-03-29T15:51:07.659Z,21.40
2023-03-29T15:53:36.168Z,21.40
2023-03-29T15:56:04.417Z,21.50
2023-03-29T15:58:34.436Z,21.40
2023-03-29T16:01:11.114Z,21.40
2023-03-29T16:03:38.980Z,21.50
2023-03-29T16:06:07.641Z,21.40
2023-03-29T16:08:35.831Z,21.50
2023-03-29T16:11:04.983Z,21.40
2023-03-29T16:13:34.081Z,21.50
2023-03-29T16:16:02.015Z,21.50
2023-03-29T16:18:29.989Z,21.40
2023-03-29T16:20:59.251Z,21.40
2023-03-29T16:23:26.943Z,21.50
2023-03-29T16:25:54.628Z,21.50
2023-03-29T16:28:22.419Z,21.50
2023-03-29T16:30:51.566Z,21.40
2023-03-29T16:33:19.239Z,21.40
2023-03-29T16:35:47.231Z,21.40
2023-03-29T16:38:14.956Z,21.50
2023-03-29T16:40:43.612Z,21.40
2023-03-29T16:43:14.233Z,21.40
2023-03-29T16:45:41.974Z,21.40
2023-03-29T16:48:12.990Z,21.50
2023-03-29T16:50:40.857Z,21.50
2023-03-29T16:53:08.745Z,21.50
2023-03-29T16:55:37.910Z,21.50
2023-03-29T16:58:05.834Z,21.50
2023-03-29T17:00:33.650Z,21.50
2023-03-29T17:03:02.148Z,21.50
2023-03-29T17:05:31.756Z,21.50
2023-03-29T17:07:59.407Z,21.50
2023-03-29T17:10:27.059Z,21.50
2023-03-29T17:12:54.704Z,21.50
2023-03-29T17:15:22.509Z,21.40
2023-03-29T17:17:50.216Z,21.40
2023-03-29T17:20:18.112Z,21.50
2023-03-29T17:22:48.956Z,21.40
2023-03-29T17:25:16.759Z,21.40
2023-03-29T17:27:45.369Z,21.30
2023-03-29T17:30:13.644Z,21.30
2023-03-29T17:32:42.893Z,21.30
2023-03-29T17:35:10.804Z,21.30
2023-03-29T17:37:38.538Z,21.30
2023-03-29T17:40:11.235Z,21.30
2023-03-29T17:42:38.924Z,21.30
2023-03-29T17:45:08.100Z,21.30
2023-03-29T17:47:35.895Z,21.30
2023-03-29T17:50:03.595Z,21.20
2023-03-29T17:52:31.293Z,21.20
2023-03-29T17:54:58.969Z,21.10
2023-03-29T17:57:28.038Z,21.10
2023-03-29T17:59:55.994Z,21.10
2023-03-29T18:02:24.590Z,21.10
2023-03-29T18:04:52.637Z,21.00
2023-03-29T18:07:20.324Z,21.00
2023-03-29T18:09:48.018Z,21.00
2023-03-29T18:12:16.617Z,21.00
2023-03-29T18:14:45.625Z,20.90
2023-03-29T18:17:13.293Z,20.90
2023-03-29T18:19:40.990Z,20.90
2023-03-29T18:22:08.658Z,20.80
2023-03-29T18:24:36.389Z,20.80
2023-03-29T18:27:04.100Z,20.80
2023-03-29T18:29:31.767Z,20.80
2023-03-29T18:32:02.822Z,20.70
2023-03-29T18:34:31.176Z,20.70
2023-03-29T18:36:58.840Z,20.70
2023-03-29T18:39:27.225Z,20.70
2023-03-29T18:41:54.928Z,20.60
2023-03-29T18:44:27.115Z,20.60
2023-03-29T18:46:55.277Z,20.60
2023-03-29T18:49:24.885Z,20.60
2023-03-29T18:51:54.216Z,20.60
2023-03-29T18:54:21.952Z,20.50
2023-03-29T18:56:49.607Z,20.50
2023-03-29T18:59:17.533Z,20.50
2023-03-29T19:01:45.220Z,20.40
2023-03-29T19:04:14.260Z,20.40
2023-03-29T19:06:43.252Z,20.40
2023-03-29T19:09:10.901Z,20.40
2023-03-29T19:11:38.629Z,20.30
2023-03-29T19:14:08.779Z,20.30
2023-03-29T19:16:36.782Z,20.30
2023-03-29T19:19:05.605Z,20.20
2023-03-29T19:21:33.365Z,20.20
2023-03-29T19:24:04.945Z,20.20
2023-03-29T19:26:33.418Z,20.20
2023-03-29T19:29:01.256Z,20.10
2023-03-29T19:31:28.962Z,20.10
2023-03-29T19:33:56.665Z,20.10
2023-03-29T19:36:24.372Z,20.10
2023-03-29T19:38:53.965Z,20.10
2023-03-29T19:41:23.943Z,20.10
2023-03-29T19:43:51.597Z,20.10
2023-03-29T19:46:20.323Z,20.00
2023-03-29T19:48:48.061Z,20.00
2023-03-29T19:51:15.725Z,20.00
2023-03-29T19:53:43.400Z,20.00
2023-03-29T19:56:13.114Z,20.00
2023-03-29T19:58:42.118Z,20.00
2023-03-29T20:01:09.781Z,20.00
2023-03-29T20:03:37.525Z,19.90
2023-03-29T20:06:05.518Z,20.00
2023-03-29T20:08:33.206Z,19.90
2023-03-29T20:11:02.807Z,19.90
2023-03-29T20:13:38.353Z,19.90
2023-03-29T20:16:08.666Z,19.90
2023-03-29T20:18:38.126Z,19.90
2023-03-29T20:21:05.994Z,19.90
2023-03-29T20:23:33.832Z,19.90
2023-03-29T20:26:01.500Z,19.90
2023-03-29T20:28:29.213Z,19.90
2023-03-29T20:30:56.874Z,19.90
2023-03-29T20:33:26.109Z,19.90
2023-03-29T20:35:53.897Z,19.90
2023-03-29T20:38:21.841Z,19.90
2023-03-29T20:40:49.868Z,19.90
2023-03-29T20:43:20.022Z,20.00
2023-03-29T20:45:52.723Z,20.00
2023-03-29T20:48:22.845Z,20.00
2023-03-29T20:50:52.119Z,20.00
2023-03-29T20:53:20.337Z,20.10
2023-03-29T20:55:48.338Z,20.10
2023-03-29T20:58:16.480Z,20.10
2023-03-29T21:00:44.461Z,20.20
2023-03-29T21:03:12.213Z,20.20
2023-03-29T21:05:39.926Z,20.20
2023-03-29T21:08:09.218Z,20.30
2023-03-29T21:10:38.642Z,20.30
2023-03-29T21:13:06.288Z,20.30
2023-03-29T21:15:33.982Z,20.40
2023-03-29T21:18:01.879Z,20.40
2023-03-29T21:20:29.796Z,20.50
2023-03-29T21:22:57.536Z,20.50
2023-03-29T21:25:26.555Z,20.50
2023-03-29T21:27:54.204Z,20.50
2023-03-29T21:30:21.847Z,20.50
2023-03-29T21:32:49.581Z,20.50
2023-03-29T21:35:17.448Z,20.60
2023-03-29T21:37:45.178Z,20.60
2023-03-29T21:40:14.416Z,20.60
2023-03-29T21:42:43.471Z,20.60
2023-03-29T21:45:11.852Z,20.70
2023-03-29T21:47:39.689Z,20.70
2023-03-29T21:50:08.211Z,20.70
2023-03-29T21:52:37.614Z,20.70
2023-03-29T21:55:05.722Z,20.80
2023-03-29T21:57:33.483Z,20.80
2023-03-29T22:00:02.534Z,20.80
2023-03-29T22:02:32.959Z,20.80
2023-03-29T22:05:00.689Z,20.80
2023-03-29T22:07:28.574Z,20.80
2023-03-29T22:09:58.551Z,20.90
2023-03-29T22:12:26.977Z,20.90
2023-03-29T22:14:54.671Z,20.90
2023-03-29T22:17:26.623Z,21.00
2023-03-29T22:19:56.572Z,21.00
2023-03-29T22:22:24.358Z,21.00
2023-03-29T22:24:53.501Z,21.10
2023-03-29T22:27:21.276Z,21.10
2023-03-29T22:29:49.004Z,21.10
2023-03-29T22:32:16.807Z,21.10
2023-03-29T22:34:46.025Z,21.20
2023-03-29T22:37:13.670Z,21.20
2023-03-29T22:39:41.336Z,21.30
2023-03-29T22:42:08.992Z,21.30
2023-03-29T22:44:36.862Z,21.40
2023-03-29T22:47:04.534Z,21.40
2023-03-29T22:49:32.186Z,21.40
2023-03-29T22:52:01.448Z,21.50
2023-03-29T22:54:29.402Z,21.50
2023-03-29T22:56:57.139Z,21.60
2023-03-29T22:59:25.056Z,21.60
2023-03-29T23:01:52.881Z,21.60
2023-03-29T23:04:20.670Z,21.70
2023-03-29T23:06:48.343Z,21.70
2023-03-29T23:09:17.309Z,21.70
2023-03-29T23:11:45.018Z,21.80
2023-03-29T23:14:12.728Z,21.80
2023-03-29T23:16:40.422Z,21.90
2023-03-29T23:19:08.082Z,21.90
2023-03-29T23:21:37.010Z,22.00
2023-03-29T23:24:05.019Z,22.00
2023-03-29T23:26:35.622Z,22.10
2023-03-29T23:29:03.997Z,22.20
2023-03-29T23:31:33.700Z,22.30
2023-03-29T23:34:03.088Z,22.40
2023-03-29T23:36:31.915Z,22.40
2023-03-29T23:38:59.678Z,22.40
2023-03-29T23:41:28.231Z,22.50
2023-03-29T23:43:57.500Z,22.50
2023-03-29T23:46:25.954Z,22.60
2023-03-29T23:48:53.666Z,22.60
2023-03-29T23:51:23.401Z,22.60
2023-03-29T23:53:51.648Z,22.70
2023-03-29T23:56:19.354Z,22.70
2023-03-29T23:58:47.116Z,22.70
